sensor_id;sensor_type;location;lat;lon;timestamp;pressure;altitude;pressure_sealevel;temperature;humidity
4528;BME280;62320;51.520;6.818;2023-04-08T00:03:43;101709.84;;;7.45;100.00
4528;BME280;62320;51.520;6.818;2023-04-08T00:13:45;101718.63;;;7.52;100.00
4528;BME280;62320;51.520;6.818;2023-04-08T00:23:46;101722.78;;;7.48;100.00
4528;BME280;62320;51.520;6.818;2023-04-08T00:33:48;101720.88;;;7.41;100.00
4528;BME280;62320;51.520;6.818;2023-04-08T00:43:49;101731.09;;;7.38;100.00
4528;BME280;62320;51.520;6.818;2023-04-08T00:53:52;101740.66;;;7.42;100.00
4528;BME280;62320;51.520;6.818;2023-04-08T01:04:11;101737.19;;;7.42;100.00
4528;BME280;62320;51.520;6.818;2023-04-08T01:14:20;101750.22;;;7.48;100.00
4528;BME280;62320;51.520;6.818;2023-04-08T01:24:27;101734.78;;;7.48;100.00
4528;BME280;62320;51.520;6.818;2023-04-08T01:34:30;101732.28;;;7.49;100.00
4528;BME280;62320;51.520;6.818;2023-04-08T01:44:33;101743.34;;;7.47;100.00
4528;BME280;62320;51.520;6.818;2023-04-08T01:54:36;101756.38;;;7.53;100.00
4528;BME280;62320;51.520;6.818;2023-04-08T02:04:37;101759.72;;;7.50;100.00
4528;BME280;62320;51.520;6.818;2023-04-08T02:14:39;101747.25;;;7.34;100.00
4528;BME280;62320;51.520;6.818;2023-04-08T02:24:41;101748.84;;;7.29;100.00
4528;BME280;62320;51.520;6.818;2023-04-08T02:34:45;101753.66;;;7.18;100.00
4528;BME280;62320;51.520;6.818;2023-04-08T02:44:47;101756.66;;;7.04;100.00
4528;BME280;62320;51.520;6.818;2023-04-08T02:54:49;101753.91;;;6.98;100.00
4528;BME280;62320;51.520;6.818;2023-04-08T03:04:50;101760.25;;;6.81;100.00
4528;BME280;62320;51.520;6.818;2023-04-08T03:14:52;101766.00;;;6.74;100.00
4528;BME280;62320;51.520;6.818;2023-04-08T03:24:53;101766.19;;;6.53;100.00
4528;BME280;62320;51.520;6.818;2023-04-08T03:34:55;101766.31;;;6.31;100.00
4528;BME280;62320;51.520;6.818;2023-04-08T03:44:56;101768.38;;;6.16;100.00
4528;BME280;62320;51.520;6.818;2023-04-08T03:54:58;101781.50;;;6.00;100.00
4528;BME280;62320;51.520;6.818;2023-04-08T04:05:00;101776.16;;;5.94;100.00
4528;BME280;62320;51.520;6.818;2023-04-08T04:15:02;101796.41;;;5.86;100.00
4528;BME280;62320;51.520;6.818;2023-04-08T04:25:04;101803.19;;;5.84;100.00
4528;BME280;62320;51.520;6.818;2023-04-08T04:35:06;101811.25;;;5.71;100.00
4528;BME280;62320;51.520;6.818;2023-04-08T04:45:08;101822.03;;;5.85;100.00
4528;BME280;62320;51.520;6.818;2023-04-08T04:55:10;101848.03;;;5.94;100.00
4528;BME280;62320;51.520;6.818;2023-04-08T05:05:11;101850.31;;;5.64;100.00
4528;BME280;62320;51.520;6.818;2023-04-08T05:15:13;101839.97;;;5.61;100.00
4528;BME280;62320;51.520;6.818;2023-04-08T05:25:15;101852.53;;;5.55;100.00
4528;BME280;62320;51.520;6.818;2023-04-08T05:35:16;101864.50;;;5.54;100.00
4528;BME280;62320;51.520;6.818;2023-04-08T05:45:18;101881.94;;;5.63;100.00
4528;BME280;62320;51.520;6.818;2023-04-08T05:55:19;101893.84;;;5.61;100.00
4528;BME280;62320;51.520;6.818;2023-04-08T06:05:20;101896.63;;;5.45;100.00
4528;BME280;62320;51.520;6.818;2023-04-08T06:15:22;101900.59;;;5.37;100.00
4528;BME280;62320;51.520;6.818;2023-04-08T06:25:23;101905.88;;;5.41;100.00
4528;BME280;62320;51.520;6.818;2023-04-08T06:35:25;101911.50;;;5.53;100.00
4528;BME280;62320;51.520;6.818;2023-04-08T06:45:28;101928.41;;;5.70;100.00
4528;BME280;62320;51.520;6.818;2023-04-08T06:55:30;101934.59;;;5.75;100.00
4528;BME280;62320;51.520;6.818;2023-04-08T07:05:31;101943.13;;;5.74;100.00
4528;BME280;62320;51.520;6.818;2023-04-08T07:15:33;101960.84;;;5.91;100.00
4528;BME280;62320;51.520;6.818;2023-04-08T07:25:35;101965.88;;;6.10;100.00
4528;BME280;62320;51.520;6.818;2023-04-08T07:35:37;101971.72;;;6.29;100.00
4528;BME280;62320;51.520;6.818;2023-04-08T07:45:38;101975.38;;;6.58;100.00
4528;BME280;62320;51.520;6.818;2023-04-08T07:55:40;101987.97;;;6.99;100.00
4528;BME280;62320;51.520;6.818;2023-04-08T08:05:42;102002.69;;;7.30;100.00
4528;BME280;62320;51.520;6.818;2023-04-08T08:15:44;101994.06;;;7.55;100.00
4528;BME280;62320;51.520;6.818;2023-04-08T08:25:46;102004.41;;;7.83;100.00
4528;BME280;62320;51.520;6.818;2023-04-08T08:35:47;102019.44;;;7.98;100.00
4528;BME280;62320;51.520;6.818;2023-04-08T08:45:49;102023.94;;;8.31;100.00
4528;BME280;62320;51.520;6.818;2023-04-08T08:55:50;102017.28;;;8.38;100.00
4528;BME280;62320;51.520;6.818;2023-04-08T09:06:17;102014.34;;;8.55;100.00
4528;BME280;62320;51.520;6.818;2023-04-08T09:16:18;102039.22;;;8.85;100.00
4528;BME280;62320;51.520;6.818;2023-04-08T09:26:22;102044.09;;;9.07;99.61
4528;BME280;62320;51.520;6.818;2023-04-08T09:36:25;102053.63;;;9.09;98.64
4528;BME280;62320;51.520;6.818;2023-04-08T09:56:40;102047.72;;;9.46;95.33
4528;BME280;62320;51.520;6.818;2023-04-08T10:06:41;102037.94;;;9.69;96.18
4528;BME280;62320;51.520;6.818;2023-04-08T10:16:43;102040.19;;;9.91;95.20
4528;BME280;62320;51.520;6.818;2023-04-08T10:26:45;102054.19;;;10.00;93.86
4528;BME280;62320;51.520;6.818;2023-04-08T10:36:47;102054.97;;;9.96;88.67
4528;BME280;62320;51.520;6.818;2023-04-08T10:46:50;102049.72;;;9.93;86.87
4528;BME280;62320;51.520;6.818;2023-04-08T10:56:52;102037.38;;;9.80;85.93
4528;BME280;62320;51.520;6.818;2023-04-08T11:06:53;102044.16;;;9.77;85.19
4528;BME280;62320;51.520;6.818;2023-04-08T11:16:55;102045.44;;;9.94;88.47
4528;BME280;62320;51.520;6.818;2023-04-08T11:26:57;102037.91;;;10.04;84.57
4528;BME280;62320;51.520;6.818;2023-04-08T11:36:59;102029.19;;;10.38;85.59
4528;BME280;62320;51.520;6.818;2023-04-08T11:47:01;102040.81;;;10.57;87.60
4528;BME280;62320;51.520;6.818;2023-04-08T11:57:03;102042.94;;;10.77;87.17
4528;BME280;62320;51.520;6.818;2023-04-08T12:07:05;102042.88;;;11.19;82.83
4528;BME280;62320;51.520;6.818;2023-04-08T12:17:06;102051.53;;;11.21;86.79
4528;BME280;62320;51.520;6.818;2023-04-08T12:27:08;102040.78;;;11.49;86.27
4528;BME280;62320;51.520;6.818;2023-04-08T12:37:09;102043.97;;;11.83;82.74
4528;BME280;62320;51.520;6.818;2023-04-08T12:47:11;102039.81;;;11.95;84.82
4528;BME280;62320;51.520;6.818;2023-04-08T12:57:13;102034.63;;;11.94;85.11
4528;BME280;62320;51.520;6.818;2023-04-08T13:07:14;102044.13;;;11.92;85.40
4528;BME280;62320;51.520;6.818;2023-04-08T13:17:16;102035.34;;;11.84;86.72
4528;BME280;62320;51.520;6.818;2023-04-08T13:27:17;102033.69;;;11.89;86.64
4528;BME280;62320;51.520;6.818;2023-04-08T13:37:18;102031.22;;;11.98;86.53
4528;BME280;62320;51.520;6.818;2023-04-08T13:47:20;102019.28;;;12.07;86.01
4528;BME280;62320;51.520;6.818;2023-04-08T13:57:21;102026.13;;;12.04;87.09
4528;BME280;62320;51.520;6.818;2023-04-08T14:07:23;102014.91;;;12.05;87.52
4528;BME280;62320;51.520;6.818;2023-04-08T14:17:24;102014.16;;;12.13;86.53
4528;BME280;62320;51.520;6.818;2023-04-08T14:27:26;102015.97;;;12.19;86.56
4528;BME280;62320;51.520;6.818;2023-04-08T14:37:28;102017.03;;;12.35;84.65
4528;BME280;62320;51.520;6.818;2023-04-08T14:47:31;102020.53;;;12.38;86.23
4528;BME280;62320;51.520;6.818;2023-04-08T14:57:34;102018.72;;;12.31;86.31
4528;BME280;62320;51.520;6.818;2023-04-08T15:07:35;102029.09;;;12.31;86.28
4528;BME280;62320;51.520;6.818;2023-04-08T15:17:37;102016.88;;;12.23;86.11
4528;BME280;62320;51.520;6.818;2023-04-08T15:27:38;102017.75;;;12.25;86.75
4528;BME280;62320;51.520;6.818;2023-04-08T15:37:40;102025.41;;;12.15;86.39
4528;BME280;62320;51.520;6.818;2023-04-08T15:47:41;102025.47;;;12.18;86.53
4528;BME280;62320;51.520;6.818;2023-04-08T15:57:43;102025.28;;;12.05;87.07
4528;BME280;62320;51.520;6.818;2023-04-08T16:07:44;102023.44;;;11.98;87.24
4528;BME280;62320;51.520;6.818;2023-04-08T16:17:53;102013.97;;;11.98;87.72
4528;BME280;62320;51.520;6.818;2023-04-08T16:27:55;102013.03;;;11.93;87.81
4528;BME280;62320;51.520;6.818;2023-04-08T16:37:56;102025.09;;;11.91;87.34
4528;BME280;62320;51.520;6.818;2023-04-08T16:47:58;102019.78;;;11.82;87.88
4528;BME280;62320;51.520;6.818;2023-04-08T16:58:01;102013.63;;;11.76;87.73
4528;BME280;62320;51.520;6.818;2023-04-08T17:08:03;102020.41;;;11.68;87.76
4528;BME280;62320;51.520;6.818;2023-04-08T17:18:04;102022.16;;;11.67;88.48
4528;BME280;62320;51.520;6.818;2023-04-08T17:28:06;102017.63;;;11.57;88.50
4528;BME280;62320;51.520;6.818;2023-04-08T17:38:08;102034.03;;;11.58;88.11
4528;BME280;62320;51.520;6.818;2023-04-08T17:48:09;102038.19;;;11.46;88.59
4528;BME280;62320;51.520;6.818;2023-04-08T17:58:11;102051.09;;;11.45;88.51
4528;BME280;62320;51.520;6.818;2023-04-08T18:08:12;102053.75;;;11.49;89.03
4528;BME280;62320;51.520;6.818;2023-04-08T18:18:14;102068.38;;;11.44;88.73
4528;BME280;62320;51.520;6.818;2023-04-08T18:28:19;102080.38;;;11.41;88.45
4528;BME280;62320;51.520;6.818;2023-04-08T18:38:22;102077.69;;;11.35;88.92
4528;BME280;62320;51.520;6.818;2023-04-08T18:48:24;102081.06;;;11.31;88.66
4528;BME280;62320;51.520;6.818;2023-04-08T18:58:25;102081.81;;;11.24;89.57
4528;BME280;62320;51.520;6.818;2023-04-08T19:08:28;102091.19;;;11.17;89.78
4528;BME280;62320;51.520;6.818;2023-04-08T19:18:29;102092.03;;;11.18;89.55
4528;BME280;62320;51.520;6.818;2023-04-08T19:28:31;102103.09;;;11.09;89.55
4528;BME280;62320;51.520;6.818;2023-04-08T19:38:33;102107.28;;;11.04;89.62
4528;BME280;62320;51.520;6.818;2023-04-08T19:48:35;102116.72;;;10.99;90.38
4528;BME280;62320;51.520;6.818;2023-04-08T19:58:36;102108.78;;;10.92;90.43
4528;BME280;62320;51.520;6.818;2023-04-08T20:08:38;102105.25;;;10.88;90.24
4528;BME280;62320;51.520;6.818;2023-04-08T20:18:39;102112.91;;;10.82;91.32
4528;BME280;62320;51.520;6.818;2023-04-08T20:28:42;102126.72;;;10.83;91.26
4528;BME280;62320;51.520;6.818;2023-04-08T20:38:44;102123.94;;;10.73;91.49
4528;BME280;62320;51.520;6.818;2023-04-08T20:48:46;102129.28;;;10.81;90.25
4528;BME280;62320;51.520;6.818;2023-04-08T20:58:47;102119.56;;;10.71;90.63
4528;BME280;62320;51.520;6.818;2023-04-08T21:08:49;102116.84;;;10.65;91.76
4528;BME280;62320;51.520;6.818;2023-04-08T21:18:51;102115.22;;;10.70;90.87
4528;BME280;62320;51.520;6.818;2023-04-08T21:28:53;102119.47;;;10.66;91.32
4528;BME280;62320;51.520;6.818;2023-04-08T21:38:54;102122.75;;;10.58;91.90
4528;BME280;62320;51.520;6.818;2023-04-08T21:48:57;102122.69;;;10.56;90.97
4528;BME280;62320;51.520;6.818;2023-04-08T21:58:58;102125.22;;;10.53;90.82
4528;BME280;62320;51.520;6.818;2023-04-08T22:09:00;102125.91;;;10.45;91.00
4528;BME280;62320;51.520;6.818;2023-04-08T22:19:01;102118.84;;;10.38;91.02
4528;BME280;62320;51.520;6.818;2023-04-08T22:29:03;102123.00;;;10.31;90.76
4528;BME280;62320;51.520;6.818;2023-04-08T22:39:04;102118.44;;;10.20;90.88
4528;BME280;62320;51.520;6.818;2023-04-08T22:49:06;102115.53;;;10.09;91.02
4528;BME280;62320;51.520;6.818;2023-04-08T22:59:07;102110.06;;;9.95;91.18
4528;BME280;62320;51.520;6.818;2023-04-08T23:09:08;102100.28;;;9.84;90.88
4528;BME280;62320;51.520;6.818;2023-04-08T23:19:10;102099.03;;;9.67;91.47
4528;BME280;62320;51.520;6.818;2023-04-08T23:29:11;102091.75;;;9.52;91.61
4528;BME280;62320;51.520;6.818;2023-04-08T23:39:13;102080.28;;;9.41;91.65
4528;BME280;62320;51.520;6.818;2023-04-08T23:49:14;102091.94;;;9.27;92.20
4528;BME280;62320;51.520;6.818;2023-04-08T23:59:16;102088.97;;;9.12;92.71
